createdAt,value
2022-10-25T00:01:25.970Z,101173.72
2022-10-25T00:03:53.723Z,101169.19
2022-10-25T00:06:21.403Z,101160.25
2022-10-25T00:08:49.404Z,101151.28
2022-10-25T00:11:20.849Z,101162.06
2022-10-25T00:13:50.098Z,101157.56
2022-10-25T00:16:21.559Z,101155.84
2022-10-25T00:18:49.393Z,101165.63
2022-10-25T00:21:16.752Z,101158.53
2022-10-25T00:23:44.049Z,101150.44
2022-10-25T00:26:12.438Z,101145.91
2022-10-25T00:28:40.513Z,101148.59
2022-10-25T00:31:13.070Z,101141.50
2022-10-25T00:33:42.671Z,101136.13
2022-10-25T00:36:18.924Z,101144.22
2022-10-25T00:38:47.026Z,101143.22
2022-10-25T00:41:19.540Z,101141.50
2022-10-25T00:43:54.810Z,101137.97
2022-10-25T00:46:27.340Z,101130.75
2022-10-25T00:49:05.072Z,101137.13
2022-10-25T00:51:40.251Z,101129.03
2022-10-25T00:54:10.947Z,101124.66
2022-10-25T00:56:42.425Z,101120.97
2022-10-25T00:59:14.915Z,101124.50
2022-10-25T01:01:42.969Z,101119.28
2022-10-25T01:04:15.513Z,101112.03
2022-10-25T01:06:47.544Z,101121.97
2022-10-25T01:09:19.105Z,101114.72
2022-10-25T01:11:46.531Z,101127.34
2022-10-25T01:14:16.532Z,101127.34
2022-10-25T01:16:46.860Z,101121.97
2022-10-25T01:19:44.776Z,101116.56
2022-10-25T01:22:18.713Z,101113.88
2022-10-25T01:25:22.342Z,101121.97
2022-10-25T01:27:57.841Z,101118.44
2022-10-25T01:30:31.520Z,101107.66
2022-10-25T01:33:13.898Z,101107.66
2022-10-25T01:35:51.962Z,101114.72
2022-10-25T01:38:31.349Z,101114.84
2022-10-25T01:41:19.965Z,101108.63
2022-10-25T01:44:11.600Z,101129.19
2022-10-25T01:46:54.388Z,101118.53
2022-10-25T01:49:43.140Z,101114.84
2022-10-25T01:52:10.460Z,101119.38
2022-10-25T01:54:37.715Z,101109.47
2022-10-25T01:57:26.763Z,101108.50
2022-10-25T02:00:07.168Z,101108.63
2022-10-25T02:03:04.030Z,101114.84
2022-10-25T02:05:46.579Z,101118.53
2022-10-25T02:08:38.345Z,101111.47
2022-10-25T02:11:27.689Z,101111.31
2022-10-25T02:14:00.595Z,101114.00
2022-10-25T02:16:51.438Z,101107.78
2022-10-25T02:19:27.630Z,101109.63
2022-10-25T02:21:56.942Z,101118.53
2022-10-25T02:24:26.968Z,101107.78
2022-10-25T02:26:55.241Z,101111.47
2022-10-25T02:29:25.849Z,101123.94
2022-10-25T02:31:53.228Z,101111.47
2022-10-25T02:34:21.221Z,101122.22
2022-10-25T02:36:49.626Z,101119.53
2022-10-25T02:39:18.862Z,101127.63
2022-10-25T02:41:46.279Z,101125.94
2022-10-25T02:44:13.789Z,101125.78
2022-10-25T02:46:41.087Z,101131.16
2022-10-25T02:49:08.320Z,101131.16
2022-10-25T02:51:35.607Z,101132.16
2022-10-25T02:54:02.923Z,101123.22
2022-10-25T02:56:30.285Z,101132.00
2022-10-25T02:58:58.223Z,101126.63
2022-10-25T03:01:25.900Z,101110.72
2022-10-25T03:06:20.266Z,101127.63
2022-10-25T03:08:47.970Z,101127.63
2022-10-25T03:11:16.966Z,101117.97
2022-10-25T03:13:44.507Z,101130.59
2022-10-25T03:18:38.881Z,101134.00
2022-10-25T03:21:06.831Z,101124.19
2022-10-25T03:26:01.875Z,101136.69
2022-10-25T03:28:30.748Z,101136.69
2022-10-25T03:30:59.777Z,101141.34
2022-10-25T03:33:27.736Z,101134.28
2022-10-25T03:35:55.874Z,101139.38
2022-10-25T03:40:50.200Z,101127.88
2022-10-25T03:43:17.533Z,101140.50
2022-10-25T03:45:45.114Z,101155.81
2022-10-25T03:48:12.627Z,101153.69
2022-10-25T03:50:40.079Z,101157.50
2022-10-25T03:55:39.927Z,101153.13
2022-10-25T03:58:07.214Z,101148.59
2022-10-25T04:00:34.559Z,101154.81
2022-10-25T04:03:02.757Z,101151.41
2022-10-25T04:05:31.335Z,101156.78
2022-10-25T04:07:59.107Z,101158.50
2022-10-25T04:10:27.025Z,101165.59
2022-10-25T04:12:54.926Z,101166.59
2022-10-25T04:15:23.738Z,101162.16
2022-10-25T04:17:52.342Z,101176.50
2022-10-25T04:20:20.263Z,101175.50
2022-10-25T04:22:54.240Z,101171.13
2022-10-25T04:25:21.899Z,101171.13
2022-10-25T04:27:49.469Z,101162.16
2022-10-25T04:30:16.977Z,101161.31
2022-10-25T04:32:44.375Z,101176.59
2022-10-25T04:35:12.838Z,101183.72
2022-10-25T04:37:40.120Z,101190.94
2022-10-25T04:40:08.647Z,101195.44
2022-10-25T04:42:36.026Z,101192.75
2022-10-25T04:45:03.736Z,101191.91
2022-10-25T04:47:32.582Z,101188.38
2022-10-25T04:49:59.935Z,101195.59
2022-10-25T04:52:30.396Z,101194.59
2022-10-25T04:54:58.341Z,101206.22
2022-10-25T04:57:25.969Z,101200.84
2022-10-25T04:59:53.464Z,101208.06
2022-10-25T05:02:20.702Z,101199.13
2022-10-25T05:04:47.995Z,101193.75
2022-10-25T05:07:19.407Z,101208.06
2022-10-25T05:09:48.977Z,101217.97
2022-10-25T05:12:18.454Z,101215.19
2022-10-25T05:14:45.736Z,101231.44
2022-10-25T05:17:13.011Z,101228.75
2022-10-25T05:19:40.253Z,101238.53
2022-10-25T05:22:07.608Z,101249.31
2022-10-25T05:24:35.296Z,101247.59
2022-10-25T05:27:04.326Z,101257.38
2022-10-25T05:29:31.614Z,101263.66
2022-10-25T05:31:59.792Z,101271.84
2022-10-25T05:34:27.538Z,101278.06
2022-10-25T05:36:55.292Z,101283.47
2022-10-25T05:39:22.550Z,101280.91
2022-10-25T05:41:49.921Z,101273.69
2022-10-25T05:44:17.513Z,101288.00
2022-10-25T05:46:45.643Z,101288.00
2022-10-25T05:49:13.744Z,101279.94
2022-10-25T05:51:40.992Z,101279.94
2022-10-25T05:54:11.642Z,101287.16
2022-10-25T05:56:39.714Z,101297.78
2022-10-25T05:59:10.258Z,101290.69
2022-10-25T06:01:40.129Z,101286.31
2022-10-25T06:04:08.042Z,101280.91
2022-10-25T06:06:37.044Z,101277.22
2022-10-25T06:09:05.256Z,101276.25
2022-10-25T06:11:32.947Z,101289.69
2022-10-25T06:14:00.388Z,101289.00
2022-10-25T06:16:27.915Z,101297.94
2022-10-25T06:18:55.306Z,101301.63
2022-10-25T06:21:25.576Z,101309.53
2022-10-25T06:23:53.600Z,101323.00
2022-10-25T06:26:23.778Z,101318.63
2022-10-25T06:28:56.647Z,101324.84
2022-10-25T06:31:24.614Z,101337.47
2022-10-25T06:33:52.214Z,101342.72
2022-10-25T06:36:22.183Z,101346.41
2022-10-25T06:38:50.425Z,101351.66
2022-10-25T06:41:20.679Z,101347.25
2022-10-25T06:43:48.354Z,101357.19
2022-10-25T06:46:24.952Z,101375.19
2022-10-25T06:48:54.812Z,101378.00
2022-10-25T06:51:23.839Z,101376.41
2022-10-25T06:53:58.734Z,101369.34
2022-10-25T06:56:27.868Z,101374.97
2022-10-25T06:58:55.548Z,101380.63
2022-10-25T07:01:24.457Z,101383.31
2022-10-25T07:03:54.184Z,101390.69
2022-10-25T07:06:29.822Z,101391.63
2022-10-25T07:09:01.426Z,101393.38
2022-10-25T07:11:30.740Z,101396.06
2022-10-25T07:13:59.703Z,101408.53
2022-10-25T07:16:28.193Z,101413.91
2022-10-25T07:19:03.357Z,101425.53
2022-10-25T07:21:32.368Z,101425.53
2022-10-25T07:23:59.631Z,101421.84
2022-10-25T07:26:28.586Z,101422.69
2022-10-25T07:28:58.077Z,101422.69
2022-10-25T07:31:37.260Z,101431.66
2022-10-25T07:34:05.776Z,101425.41
2022-10-25T07:36:33.644Z,101420.91
2022-10-25T07:39:00.954Z,101433.38
2022-10-25T07:41:28.380Z,101438.75
2022-10-25T07:43:55.714Z,101452.31
2022-10-25T07:46:23.511Z,101455.75
2022-10-25T07:48:52.494Z,101463.84
2022-10-25T07:51:20.237Z,101462.84
2022-10-25T07:53:47.700Z,101465.44
2022-10-25T07:56:23.170Z,101453.78
2022-10-25T07:58:52.462Z,101451.09
2022-10-25T08:01:22.361Z,101465.28
2022-10-25T08:03:51.167Z,101457.22
2022-10-25T08:06:19.112Z,101445.59
2022-10-25T08:08:46.713Z,101441.06
2022-10-25T08:11:14.113Z,101444.59
2022-10-25T08:13:41.519Z,101452.53
2022-10-25T08:16:08.811Z,101462.34
2022-10-25T08:19:00.696Z,101459.50
2022-10-25T08:21:28.003Z,101457.66
2022-10-25T08:23:55.663Z,101458.50
2022-10-25T08:26:26.354Z,101462.06
2022-10-25T08:28:55.435Z,101466.59
2022-10-25T08:31:22.713Z,101469.19
2022-10-25T08:33:50.058Z,101466.50
2022-10-25T08:36:17.357Z,101470.06
2022-10-25T08:38:44.613Z,101457.56
2022-10-25T08:41:22.163Z,101459.28
2022-10-25T08:44:11.216Z,101461.09
2022-10-25T08:47:00.059Z,101477.25
2022-10-25T08:49:30.228Z,101487.06
2022-10-25T08:51:59.444Z,101475.44
2022-10-25T08:54:43.516Z,101482.53
2022-10-25T08:57:23.764Z,101481.69
2022-10-25T09:00:14.299Z,101479.84
2022-10-25T09:02:50.946Z,101479.00
2022-10-25T09:05:36.427Z,101482.53
2022-10-25T09:08:42.671Z,101480.69
2022-10-25T09:11:37.484Z,101475.44
2022-10-25T09:14:33.938Z,101475.44
2022-10-25T09:17:20.522Z,101479.84
2022-10-25T09:20:07.909Z,101484.13
2022-10-25T09:22:50.672Z,101484.13
2022-10-25T09:28:00.978Z,101487.69
2022-10-25T09:30:41.806Z,101485.84
2022-10-25T09:35:53.102Z,101492.91
2022-10-25T09:38:42.805Z,101485.69
2022-10-25T09:41:39.882Z,101496.47
2022-10-25T09:44:35.342Z,101497.19
2022-10-25T09:47:11.514Z,101490.81
2022-10-25T09:49:56.489Z,101489.13
2022-10-25T09:52:48.021Z,101493.66
2022-10-25T09:55:31.313Z,101486.28
2022-10-25T09:57:58.835Z,101489.97
2022-10-25T10:00:26.088Z,101493.38
2022-10-25T10:02:53.848Z,101504.91
2022-10-25T10:05:22.548Z,101506.72
2022-10-25T10:07:50.964Z,101506.72
2022-10-25T10:10:26.072Z,101499.66
2022-10-25T10:13:06.875Z,101506.72
2022-10-25T10:15:42.422Z,101500.50
2022-10-25T10:18:24.816Z,101497.91
2022-10-25T10:20:58.560Z,101502.34
2022-10-25T10:23:28.625Z,101507.84
2022-10-25T10:25:56.397Z,101497.06
2022-10-25T10:28:23.791Z,101500.59
2022-10-25T10:30:56.925Z,101506.84
2022-10-25T10:33:29.973Z,101506.00
2022-10-25T10:36:17.005Z,101497.91
2022-10-25T10:38:44.447Z,101497.06
2022-10-25T10:41:14.672Z,101492.66
2022-10-25T10:43:42.033Z,101488.97
2022-10-25T10:46:17.749Z,101483.72
2022-10-25T10:49:18.977Z,101484.59
2022-10-25T10:51:47.266Z,101482.88
2022-10-25T10:54:26.876Z,101481.16
2022-10-25T10:56:56.775Z,101479.19
2022-10-25T10:59:32.920Z,101478.47
2022-10-25T11:02:17.281Z,101477.34
2022-10-25T11:04:49.243Z,101476.50
2022-10-25T11:07:36.106Z,101471.97
2022-10-25T11:10:15.525Z,101472.13
2022-10-25T11:12:44.208Z,101470.13
2022-10-25T11:15:15.331Z,101471.13
2022-10-25T11:17:58.276Z,101465.72
2022-10-25T11:20:30.215Z,101469.28
2022-10-25T11:23:36.603Z,101461.19
2022-10-25T11:26:28.210Z,101464.88
2022-10-25T11:29:41.710Z,101464.75
2022-10-25T11:32:46.444Z,101461.06
2022-10-25T11:35:54.647Z,101461.06
2022-10-25T11:38:55.702Z,101445.88
2022-10-25T11:41:45.505Z,101448.56
2022-10-25T11:44:43.049Z,101445.88
2022-10-25T11:47:25.030Z,101440.50
2022-10-25T11:50:27.801Z,101433.25
2022-10-25T11:53:04.202Z,101440.50
2022-10-25T11:55:48.225Z,101436.09
2022-10-25T11:58:39.378Z,101445.19
2022-10-25T12:01:24.956Z,101434.50
2022-10-25T12:04:00.045Z,101441.50
2022-10-25T12:07:03.732Z,101436.34
2022-10-25T12:09:33.610Z,101429.97
2022-10-25T12:12:10.281Z,101427.28
2022-10-25T12:14:42.292Z,101420.19
2022-10-25T12:17:34.674Z,101416.50
2022-10-25T12:20:11.354Z,101417.50
2022-10-25T12:22:45.734Z,101410.16
2022-10-25T12:26:10.406Z,101416.50
2022-10-25T12:28:40.840Z,101408.44
2022-10-25T12:31:19.222Z,101412.00
2022-10-25T12:33:49.006Z,101412.00
2022-10-25T12:36:26.812Z,101407.47
2022-10-25T12:38:58.024Z,101397.53
2022-10-25T12:41:30.589Z,101395.69
2022-10-25T12:44:35.223Z,101398.38
2022-10-25T12:47:14.606Z,101394.00
2022-10-25T12:50:03.856Z,101397.53
2022-10-25T12:52:56.232Z,101392.00
2022-10-25T12:55:42.273Z,101387.63
2022-10-25T12:58:47.098Z,101388.31
2022-10-25T13:01:17.511Z,101385.78
2022-10-25T13:04:25.178Z,101384.94
2022-10-25T13:06:53.938Z,101379.41
2022-10-25T13:09:27.128Z,101392.84
2022-10-25T13:12:02.966Z,101382.22
2022-10-25T13:14:33.085Z,101383.09
2022-10-25T13:17:18.728Z,101382.22
2022-10-25T13:19:56.130Z,101383.94
2022-10-25T13:22:39.362Z,101389.31
2022-10-25T13:25:13.041Z,101389.31
2022-10-25T13:28:15.319Z,101382.94
2022-10-25T13:30:45.477Z,101382.94
2022-10-25T13:33:19.360Z,101384.78
2022-10-25T13:35:58.876Z,101382.94
2022-10-25T13:38:29.960Z,101381.13
2022-10-25T13:41:15.966Z,101384.66
2022-10-25T13:44:01.772Z,101381.97
2022-10-25T13:46:34.741Z,101382.81
2022-10-25T13:49:05.013Z,101379.28
2022-10-25T13:51:39.482Z,101382.81
2022-10-25T13:54:12.026Z,101376.59
2022-10-25T13:56:50.951Z,101377.44
2022-10-25T13:59:53.432Z,101383.66
2022-10-25T14:02:26.440Z,101378.28
2022-10-25T14:04:57.025Z,101383.66
2022-10-25T14:07:48.647Z,101386.22
2022-10-25T14:10:25.794Z,101389.91
2022-10-25T14:13:00.293Z,101394.44
2022-10-25T14:15:39.732Z,101384.53
2022-10-25T14:18:18.664Z,101389.06
2022-10-25T14:20:49.134Z,101373.75
2022-10-25T14:23:25.703Z,101385.38
2022-10-25T14:26:01.532Z,101381.69
2022-10-25T14:28:35.189Z,101377.19
2022-10-25T14:31:08.273Z,101370.78
2022-10-25T14:33:49.528Z,101377.19
2022-10-25T14:36:30.102Z,101377.19
2022-10-25T14:39:21.749Z,101375.34
2022-10-25T14:42:02.715Z,101377.88
2022-10-25T14:44:31.816Z,101382.56
2022-10-25T14:47:06.237Z,101373.50
2022-10-25T14:49:33.495Z,101382.41
2022-10-25T14:52:05.925Z,101374.34
2022-10-25T14:54:38.858Z,101376.03
2022-10-25T14:57:07.387Z,101378.72
2022-10-25T14:59:43.151Z,101368.81
2022-10-25T15:02:24.942Z,101375.03
2022-10-25T15:04:54.811Z,101369.66
2022-10-25T15:07:24.151Z,101374.19
2022-10-25T15:09:53.926Z,101365.25
2022-10-25T15:12:34.947Z,101367.84
2022-10-25T15:15:38.489Z,101369.66
2022-10-25T15:18:19.044Z,101357.06
2022-10-25T15:20:49.809Z,101363.31
2022-10-25T15:23:23.829Z,101357.91
2022-10-25T15:25:51.156Z,101366.84
2022-10-25T15:28:19.775Z,101360.63
2022-10-25T15:30:49.764Z,101357.06
2022-10-25T15:33:25.359Z,101358.78
2022-10-25T15:35:58.509Z,101363.16
2022-10-25T15:38:47.918Z,101365.84
2022-10-25T15:41:18.609Z,101355.09
2022-10-25T15:43:45.888Z,101356.78
2022-10-25T15:46:35.036Z,101359.47
2022-10-25T15:49:07.249Z,101353.97
2022-10-25T15:51:38.174Z,101358.38
2022-10-25T15:54:05.692Z,101355.66
2022-10-25T15:56:32.917Z,101360.06
2022-10-25T15:59:02.390Z,101361.06
2022-10-25T16:01:30.178Z,101368.16
2022-10-25T16:03:57.644Z,101371.69
2022-10-25T16:06:24.878Z,101368.16
2022-10-25T16:08:52.130Z,101372.69
2022-10-25T16:11:21.267Z,101371.69
2022-10-25T16:13:51.799Z,101368.16
2022-10-25T16:16:39.331Z,101368.16
2022-10-25T16:19:14.638Z,101376.22
2022-10-25T16:21:42.295Z,101373.53
2022-10-25T16:24:10.132Z,101374.69
2022-10-25T16:26:46.852Z,101380.91
2022-10-25T16:29:17.975Z,101365.59
2022-10-25T16:31:45.502Z,101378.06
2022-10-25T16:34:15.498Z,101375.53
2022-10-25T16:36:44.221Z,101376.22
2022-10-25T16:39:12.078Z,101386.16
2022-10-25T16:41:41.593Z,101388.84
2022-10-25T16:44:11.315Z,101387.84
2022-10-25T16:46:39.025Z,101398.63
2022-10-25T16:49:06.458Z,101395.94
2022-10-25T16:51:36.761Z,101401.31
2022-10-25T16:54:04.461Z,101391.44
2022-10-25T16:56:31.978Z,101397.66
2022-10-25T16:58:59.623Z,101400.22
2022-10-25T17:01:34.320Z,101411.13
2022-10-25T17:04:04.156Z,101416.38
2022-10-25T17:06:46.970Z,101417.22
2022-10-25T17:09:20.156Z,101414.53
2022-10-25T17:11:47.415Z,101419.94
2022-10-25T17:14:14.726Z,101420.78
2022-10-25T17:16:44.279Z,101427.16
2022-10-25T17:19:12.398Z,101423.47
2022-10-25T17:21:39.943Z,101428.88
2022-10-25T17:24:09.690Z,101425.31
2022-10-25T17:26:38.064Z,101429.84
2022-10-25T17:29:06.265Z,101435.97
2022-10-25T17:31:34.562Z,101432.56
2022-10-25T17:34:03.144Z,101437.78
2022-10-25T17:36:32.561Z,101438.78
2022-10-25T17:39:00.935Z,101438.78
2022-10-25T17:41:28.285Z,101448.72
2022-10-25T17:43:56.859Z,101445.03
2022-10-25T17:46:29.103Z,101451.41
2022-10-25T17:49:03.194Z,101454.09
2022-10-25T17:51:32.337Z,101471.00
2022-10-25T17:53:59.813Z,101467.44
2022-10-25T17:56:28.146Z,101466.59
2022-10-25T17:58:58.120Z,101471.97
2022-10-25T18:01:27.469Z,101468.31
2022-10-25T18:03:55.646Z,101467.44
2022-10-25T18:06:26.009Z,101468.31
2022-10-25T18:08:58.521Z,101468.44
2022-10-25T18:11:28.440Z,101465.72
2022-10-25T18:14:01.876Z,101464.88
2022-10-25T18:16:30.951Z,101471.13
2022-10-25T18:19:01.866Z,101468.56
2022-10-25T18:21:30.091Z,101481.06
2022-10-25T18:24:02.205Z,101480.19
2022-10-25T18:26:29.809Z,101480.19
2022-10-25T18:28:58.190Z,101482.91
2022-10-25T18:31:27.178Z,101489.28
2022-10-25T18:33:55.459Z,101483.03
2022-10-25T18:36:22.853Z,101485.59
2022-10-25T18:38:50.965Z,101490.13
2022-10-25T18:47:59.141Z,101500.06
2022-10-25T18:50:26.505Z,101494.66
2022-10-25T18:52:53.726Z,101484.84
2022-10-25T18:55:26.497Z,101489.28
2022-10-25T18:57:54.800Z,101489.38
2022-10-25T19:00:26.285Z,101498.31
2022-10-25T19:02:56.293Z,101502.84
2022-10-25T19:05:28.141Z,101497.38
2022-10-25T19:07:56.427Z,101496.50
2022-10-25T19:10:38.956Z,101498.22
2022-10-25T19:13:07.677Z,101492.81
2022-10-25T19:15:34.999Z,101499.06
2022-10-25T19:18:02.250Z,101505.31
2022-10-25T19:20:29.509Z,101498.91
2022-10-25T19:23:03.004Z,101498.91
2022-10-25T19:25:30.468Z,101489.13
2022-10-25T19:27:57.762Z,101492.56
2022-10-25T19:30:25.667Z,101484.59
2022-10-25T19:32:53.048Z,101488.13
2022-10-25T19:35:20.870Z,101489.00
2022-10-25T19:37:48.411Z,101493.53
2022-10-25T19:40:15.985Z,101481.06
2022-10-25T19:42:43.445Z,101498.66
2022-10-25T19:45:11.036Z,101493.41
2022-10-25T19:47:40.332Z,101489.88
2022-10-25T19:50:08.461Z,101490.72
2022-10-25T19:52:38.634Z,101489.00
2022-10-25T19:55:07.208Z,101494.28
2022-10-25T19:57:35.396Z,101503.22
2022-10-25T20:00:02.770Z,101498.66
2022-10-25T20:02:34.531Z,101502.34
2022-10-25T20:05:02.050Z,101504.91
2022-10-25T20:07:47.975Z,101503.34
2022-10-25T20:10:15.525Z,101507.75
2022-10-25T20:12:43.896Z,101514.59
2022-10-25T20:15:14.324Z,101505.75
2022-10-25T20:17:41.984Z,101517.38
2022-10-25T20:20:12.190Z,101517.28
2022-10-25T20:22:39.540Z,101522.78
2022-10-25T20:25:07.949Z,101515.69
2022-10-25T20:27:35.257Z,101511.16
2022-10-25T20:30:08.090Z,101515.56
2022-10-25T20:32:41.851Z,101521.94
2022-10-25T20:35:16.611Z,101527.31
2022-10-25T20:37:57.098Z,101536.13
2022-10-25T20:40:26.539Z,101527.31
2022-10-25T20:42:55.001Z,101529.91
2022-10-25T20:45:26.808Z,101526.22
2022-10-25T20:47:55.986Z,101522.78
2022-10-25T20:50:24.330Z,101525.34
2022-10-25T20:53:09.348Z,101524.50
2022-10-25T20:58:44.494Z,101525.47
2022-10-25T21:01:12.410Z,101524.50
2022-10-25T21:03:43.698Z,101525.34
2022-10-25T21:06:15.211Z,101522.66
2022-10-25T21:09:16.546Z,101520.81
2022-10-25T21:11:43.874Z,101530.75
2022-10-25T21:14:11.810Z,101536.13
2022-10-25T21:16:39.061Z,101532.72
2022-10-25T21:19:06.400Z,101538.84
2022-10-25T21:21:33.857Z,101535.28
2022-10-25T21:24:02.595Z,101546.91
2022-10-25T21:26:29.961Z,101552.31
2022-10-25T21:28:57.177Z,101554.16
2022-10-25T21:31:24.439Z,101553.16
2022-10-25T21:33:53.189Z,101555.00
2022-10-25T21:36:22.149Z,101557.81
2022-10-25T21:38:49.492Z,101546.91
2022-10-25T21:41:22.852Z,101549.47
2022-10-25T21:43:51.052Z,101536.13
2022-10-25T21:46:20.882Z,101537.84
2022-10-25T21:48:50.660Z,101532.44
2022-10-25T21:51:19.765Z,101532.44
2022-10-25T21:53:48.004Z,101530.59
2022-10-25T21:56:17.878Z,101532.44
2022-10-25T21:58:47.326Z,101537.84
2022-10-25T22:01:21.439Z,101537.84
2022-10-25T22:03:49.231Z,101537.84
2022-10-25T22:06:19.060Z,101544.09
2022-10-25T22:08:47.287Z,101542.25
2022-10-25T22:11:20.878Z,101541.38
2022-10-25T22:13:48.787Z,101537.69
2022-10-25T22:16:18.578Z,101538.69
2022-10-25T22:18:54.761Z,101540.53
2022-10-25T22:21:22.035Z,101544.94
2022-10-25T22:23:49.813Z,101539.53
2022-10-25T22:26:20.241Z,101540.41
2022-10-25T22:28:55.245Z,101537.84
2022-10-25T22:31:23.593Z,101544.94
2022-10-25T22:33:55.939Z,101540.41
2022-10-25T22:36:26.047Z,101544.94
2022-10-25T22:38:53.955Z,101545.94
2022-10-25T22:41:23.468Z,101543.22
2022-10-25T22:43:51.515Z,101544.94
2022-10-25T22:46:22.316Z,101543.22
2022-10-25T22:48:50.026Z,101551.31
2022-10-25T22:51:18.005Z,101545.94
2022-10-25T22:53:45.260Z,101542.38
2022-10-25T22:56:15.144Z,101538.84
2022-10-25T22:58:47.086Z,101532.59
2022-10-25T23:01:16.769Z,101533.56
2022-10-25T23:03:46.579Z,101534.44
2022-10-25T23:06:16.244Z,101527.31
2022-10-25T23:08:43.891Z,101535.41
2022-10-25T23:11:17.455Z,101526.47
2022-10-25T23:13:45.556Z,101549.72
2022-10-25T23:16:14.723Z,101545.31
2022-10-25T23:18:42.907Z,101554.25
2022-10-25T23:21:19.132Z,101547.91
2022-10-25T23:23:46.790Z,101549.88
2022-10-25T23:26:20.171Z,101546.31
2022-10-25T23:28:47.836Z,101551.72
2022-10-25T23:31:15.218Z,101553.66
2022-10-25T23:33:43.422Z,101559.78
2022-10-25T23:36:16.267Z,101564.34
2022-10-25T23:38:44.112Z,101562.50
2022-10-25T23:41:11.862Z,101557.09
2022-10-25T23:43:39.331Z,101562.63
2022-10-25T23:46:07.887Z,101554.53
2022-10-25T23:48:35.663Z,101568.88
2022-10-25T23:51:11.554Z,101565.31
2022-10-25T23:53:39.413Z,101560.91
2022-10-25T23:56:09.167Z,101572.53
2022-10-25T23:58:36.759Z,101581.50
